createdAt,value
2022-10-03T00:00:20.990Z,8.48
2022-10-03T00:02:51.316Z,10.40
2022-10-03T00:05:42.233Z,9.57
2022-10-03T00:08:27.950Z,10.68
2022-10-03T00:11:04.438Z,11.05
2022-10-03T00:14:06.173Z,11.05
2022-10-03T00:17:10.250Z,11.73
2022-10-03T00:20:00.196Z,10.90
2022-10-03T00:22:38.158Z,10.32
2022-10-03T00:25:27.293Z,9.20
2022-10-03T00:28:27.141Z,10.20
2022-10-03T00:31:17.294Z,10.73
2022-10-03T00:34:08.195Z,10.45
2022-10-03T00:37:14.121Z,8.30
2022-10-03T00:39:51.591Z,8.35
2022-10-03T00:42:56.374Z,11.38
2022-10-03T00:45:55.640Z,8.07
2022-10-03T00:48:43.960Z,12.93
2022-10-03T00:51:44.136Z,13.07
2022-10-03T00:54:42.701Z,11.13
2022-10-03T00:57:37.801Z,12.82
2022-10-03T01:00:20.467Z,12.55
2022-10-03T01:03:42.083Z,10.40
2022-10-03T01:06:19.502Z,10.38
2022-10-03T01:08:57.275Z,8.75
2022-10-03T01:11:25.075Z,9.13
2022-10-03T01:14:23.229Z,10.65
2022-10-03T01:16:59.474Z,10.13
2022-10-03T01:19:48.045Z,12.00
2022-10-03T01:22:46.152Z,10.07
2022-10-03T01:25:16.641Z,12.82
2022-10-03T01:28:14.023Z,8.40
2022-10-03T01:30:47.659Z,10.43
2022-10-03T01:33:37.598Z,13.50
2022-10-03T01:36:14.975Z,9.65
2022-10-03T01:38:45.591Z,10.20
2022-10-03T01:41:34.339Z,10.52
2022-10-03T01:44:30.950Z,10.43
2022-10-03T01:47:22.672Z,11.98
2022-10-03T01:50:21.706Z,9.95
2022-10-03T01:53:00.110Z,11.52
2022-10-03T01:55:45.882Z,11.57
2022-10-03T01:58:31.306Z,11.32
2022-10-03T02:01:22.900Z,11.50
2022-10-03T02:03:56.974Z,9.93
2022-10-03T02:06:43.140Z,11.82
2022-10-03T02:09:29.455Z,13.02
2022-10-03T02:12:15.934Z,12.07
2022-10-03T02:14:50.192Z,9.05
2022-10-03T02:17:39.032Z,10.95
2022-10-03T02:20:25.706Z,8.88
2022-10-03T02:22:55.984Z,11.80
2022-10-03T02:25:35.609Z,8.88
2022-10-03T02:28:36.466Z,8.95
2022-10-03T02:31:30.235Z,10.90
2022-10-03T02:34:19.235Z,9.43
2022-10-03T02:37:11.175Z,9.43
2022-10-03T02:40:03.180Z,8.70
2022-10-03T02:42:59.646Z,9.95
2022-10-03T02:45:46.698Z,8.80
2022-10-03T02:48:34.951Z,12.15
2022-10-03T02:51:26.602Z,8.13
2022-10-03T02:54:24.093Z,10.93
2022-10-03T02:57:28.863Z,9.23
2022-10-03T02:59:59.142Z,11.88
2022-10-03T03:03:01.409Z,10.48
2022-10-03T03:05:34.849Z,12.43
2022-10-03T03:08:33.712Z,10.52
2022-10-03T03:11:39.380Z,10.98
2022-10-03T03:14:34.195Z,13.73
2022-10-03T03:17:35.399Z,10.98
2022-10-03T03:20:27.757Z,15.15
2022-10-03T03:23:24.845Z,8.45
2022-10-03T03:26:18.532Z,12.80
2022-10-03T03:29:11.492Z,8.43
2022-10-03T03:31:51.035Z,13.10
2022-10-03T03:34:42.279Z,12.20
2022-10-03T03:37:28.540Z,12.57
2022-10-03T03:40:43.450Z,11.32
2022-10-03T03:43:25.708Z,11.48
2022-10-03T03:48:31.587Z,11.25
2022-10-03T03:51:21.998Z,10.38
2022-10-03T03:54:12.939Z,12.82
2022-10-03T03:57:12.439Z,10.80
2022-10-03T03:59:49.235Z,12.48
2022-10-03T04:02:35.069Z,14.35
2022-10-03T04:05:34.995Z,12.45
2022-10-03T04:08:26.899Z,13.43
2022-10-03T04:11:07.082Z,10.55
2022-10-03T04:13:37.168Z,10.93
2022-10-03T04:16:13.536Z,15.80
2022-10-03T04:19:00.914Z,10.70
2022-10-03T04:21:51.157Z,8.70
2022-10-03T04:24:36.568Z,13.68
2022-10-03T04:27:25.302Z,12.35
2022-10-03T04:30:07.782Z,9.75
2022-10-03T04:32:49.874Z,10.48
2022-10-03T04:35:42.347Z,11.05
2022-10-03T04:38:15.696Z,10.32
2022-10-03T04:41:01.853Z,9.32
2022-10-03T04:43:43.934Z,11.70
2022-10-03T04:46:39.850Z,10.95
2022-10-03T04:49:35.562Z,10.02
2022-10-03T04:52:36.252Z,12.95
2022-10-03T04:55:08.115Z,8.55
2022-10-03T04:57:45.261Z,11.20
2022-10-03T05:00:24.050Z,11.18
2022-10-03T05:03:15.359Z,13.93
2022-10-03T05:05:57.388Z,8.73
2022-10-03T05:08:35.354Z,10.82
2022-10-03T05:11:09.123Z,11.05
2022-10-03T05:14:00.828Z,12.13
2022-10-03T05:16:37.568Z,12.40
2022-10-03T05:19:23.867Z,11.80
2022-10-03T05:22:02.607Z,14.18
2022-10-03T05:24:50.215Z,10.07
2022-10-03T05:27:34.490Z,11.40
2022-10-03T05:30:15.765Z,13.32
2022-10-03T05:32:59.030Z,10.10
2022-10-03T05:35:51.165Z,9.55
2022-10-03T05:38:26.645Z,12.32
2022-10-03T05:41:10.901Z,12.48
2022-10-03T05:43:58.470Z,13.70
2022-10-03T05:46:54.911Z,13.75
2022-10-03T05:50:09.513Z,9.60
2022-10-03T05:53:11.105Z,10.45
2022-10-03T05:56:03.397Z,13.07
2022-10-03T05:58:49.456Z,11.80
2022-10-03T06:01:35.353Z,9.95
2022-10-03T06:04:11.534Z,11.50
2022-10-03T06:06:47.666Z,11.60
2022-10-03T06:09:33.422Z,10.00
2022-10-03T06:12:08.856Z,9.35
2022-10-03T06:14:51.254Z,10.85
2022-10-03T06:17:43.023Z,10.27
2022-10-03T06:20:57.012Z,9.40
2022-10-03T06:23:33.986Z,9.50
2022-10-03T06:26:07.363Z,12.43
2022-10-03T06:28:59.725Z,11.52
2022-10-03T06:31:50.595Z,10.57
2022-10-03T06:34:53.027Z,13.88
2022-10-03T06:37:32.449Z,11.50
2022-10-03T06:40:54.929Z,12.43
2022-10-03T06:43:40.583Z,9.95
2022-10-03T06:46:30.879Z,12.13
2022-10-03T06:49:18.677Z,14.55
2022-10-03T06:51:57.640Z,14.07
2022-10-03T06:54:31.070Z,12.38
2022-10-03T06:57:07.236Z,15.57
2022-10-03T06:59:51.702Z,13.60
2022-10-03T07:02:46.803Z,16.15
2022-10-03T07:05:45.211Z,14.00
2022-10-03T07:08:22.370Z,14.93
2022-10-03T07:10:59.706Z,11.80
2022-10-03T07:13:51.518Z,13.48
2022-10-03T07:16:46.649Z,11.93
2022-10-03T07:34:20.951Z,18.77
2022-10-03T07:37:13.139Z,14.88
2022-10-03T07:40:16.801Z,14.40
2022-10-03T07:43:19.329Z,14.50
2022-10-03T07:46:20.506Z,13.30
2022-10-03T07:49:18.383Z,15.35
2022-10-03T07:52:22.443Z,13.52
2022-10-03T07:55:27.581Z,11.18
2022-10-03T07:58:43.154Z,9.00
2022-10-03T08:01:13.283Z,11.52
2022-10-03T08:03:59.722Z,11.38
2022-10-03T08:06:40.114Z,10.82
2022-10-03T08:09:28.506Z,9.43
2022-10-03T08:12:28.297Z,9.95
2022-10-03T08:14:58.375Z,17.70
2022-10-03T08:17:56.407Z,11.40
2022-10-03T08:20:50.938Z,9.18
2022-10-03T08:23:44.901Z,10.27
2022-10-03T08:26:20.936Z,12.05
2022-10-03T08:29:01.069Z,10.63
2022-10-03T08:31:42.427Z,18.40
2022-10-03T08:34:28.817Z,10.30
2022-10-03T08:37:23.916Z,9.70
2022-10-03T08:40:03.542Z,14.63
2022-10-03T08:42:50.307Z,10.50
2022-10-03T08:45:56.154Z,11.07
2022-10-03T08:48:41.511Z,9.68
2022-10-03T08:51:49.669Z,10.48
2022-10-03T08:54:26.109Z,8.90
2022-10-03T08:57:11.497Z,14.50
2022-10-03T09:00:01.145Z,8.80
2022-10-03T09:03:13.664Z,10.75
2022-10-03T09:06:19.917Z,13.75
2022-10-03T09:08:53.179Z,11.38
2022-10-03T09:11:47.870Z,15.50
2022-10-03T09:14:20.884Z,12.88
2022-10-03T09:16:55.084Z,13.90
2022-10-03T09:19:40.166Z,8.93
2022-10-03T09:22:29.876Z,8.60
2022-10-03T09:25:51.503Z,12.65
2022-10-03T09:28:39.966Z,9.90
2022-10-03T09:31:18.642Z,10.35
2022-10-03T09:33:55.457Z,8.88
2022-10-03T09:36:50.495Z,9.35
2022-10-03T09:39:55.562Z,8.57
2022-10-03T09:42:41.617Z,11.32
2022-10-03T09:45:42.834Z,12.95
2022-10-03T09:48:25.466Z,9.10
2022-10-03T09:51:13.333Z,12.73
2022-10-03T09:53:45.948Z,11.05
2022-10-03T09:56:13.127Z,9.55
2022-10-03T09:59:08.091Z,9.18
2022-10-03T10:02:16.882Z,9.35
2022-10-03T10:05:15.982Z,11.95
2022-10-03T10:08:02.629Z,11.50
2022-10-03T10:10:51.308Z,10.95
2022-10-03T10:14:06.187Z,9.35
2022-10-03T10:16:54.407Z,14.38
2022-10-03T10:19:43.729Z,13.75
2022-10-03T10:22:40.827Z,10.32
2022-10-03T10:25:08.117Z,9.10
2022-10-03T10:27:35.537Z,10.48
2022-10-03T10:30:40.119Z,12.38
2022-10-03T10:33:45.532Z,9.95
2022-10-03T10:36:27.814Z,12.02
2022-10-03T10:39:04.009Z,9.52
2022-10-03T10:42:01.772Z,13.23
2022-10-03T10:44:56.865Z,12.35
2022-10-03T10:48:16.880Z,11.65
2022-10-03T10:51:10.247Z,8.75
2022-10-03T10:54:15.043Z,9.57
2022-10-03T10:57:16.217Z,11.95
2022-10-03T11:00:23.406Z,9.43
2022-10-03T11:03:22.592Z,9.55
2022-10-03T11:06:17.195Z,9.88
2022-10-03T11:09:25.726Z,11.88
2022-10-03T11:12:31.004Z,10.38
2022-10-03T11:15:41.049Z,13.02
2022-10-03T11:18:26.620Z,16.15
2022-10-03T11:21:08.782Z,13.35
2022-10-03T11:24:14.881Z,12.30
2022-10-03T11:26:48.330Z,12.50
2022-10-03T11:29:54.237Z,12.45
2022-10-03T11:32:57.548Z,11.75
2022-10-03T11:35:43.352Z,10.75
2022-10-03T11:38:49.481Z,14.80
2022-10-03T11:41:54.007Z,8.98
2022-10-03T11:44:35.044Z,11.40
2022-10-03T11:47:36.029Z,10.35
2022-10-03T11:50:29.191Z,9.02
2022-10-03T11:52:59.567Z,10.15
2022-10-03T11:55:41.231Z,9.75
2022-10-03T11:58:32.284Z,13.52
2022-10-03T12:01:07.760Z,9.98
2022-10-03T12:03:51.893Z,10.10
2022-10-03T12:07:04.007Z,11.20
2022-10-03T12:09:38.319Z,8.38
2022-10-03T12:12:33.455Z,10.30
2022-10-03T12:15:19.765Z,10.93
2022-10-03T12:18:06.755Z,11.63
2022-10-03T12:20:39.839Z,12.68
2022-10-03T12:23:44.246Z,12.57
2022-10-03T12:26:19.541Z,9.90
2022-10-03T12:28:54.688Z,10.15
2022-10-03T12:31:36.114Z,11.02
2022-10-03T12:34:25.283Z,10.38
2022-10-03T12:37:21.803Z,10.35
2022-10-03T12:40:05.995Z,12.27
2022-10-03T12:43:04.509Z,12.07
2022-10-03T12:46:02.898Z,11.45
2022-10-03T12:48:37.639Z,9.77
2022-10-03T12:51:22.593Z,12.07
2022-10-03T12:53:52.591Z,12.98
2022-10-03T12:56:42.390Z,10.45
2022-10-03T12:59:25.767Z,12.80
2022-10-03T13:02:20.662Z,10.32
2022-10-03T13:05:15.981Z,10.32
2022-10-03T13:07:57.994Z,11.25
2022-10-03T13:13:19.245Z,10.65
2022-10-03T13:18:33.340Z,11.40
2022-10-03T13:21:33.463Z,10.88
2022-10-03T13:24:02.890Z,13.38
2022-10-03T13:26:48.416Z,10.98
2022-10-03T13:29:25.367Z,12.05
2022-10-03T13:32:12.147Z,11.80
2022-10-03T13:34:52.158Z,12.02
2022-10-03T13:37:31.552Z,11.85
2022-10-03T13:40:12.606Z,11.68
2022-10-03T13:42:52.288Z,13.75
2022-10-03T13:45:26.352Z,18.98
2022-10-03T13:48:07.423Z,13.95
2022-10-03T13:50:52.311Z,12.20
2022-10-03T13:53:51.214Z,12.43
2022-10-03T13:56:35.447Z,15.70
2022-10-03T13:59:07.562Z,14.68
2022-10-03T14:01:48.967Z,15.75
2022-10-03T14:04:29.136Z,12.95
2022-10-03T14:07:25.065Z,12.65
2022-10-03T14:10:19.788Z,15.77
2022-10-03T14:13:06.080Z,14.13
2022-10-03T14:15:56.061Z,15.30
2022-10-03T14:18:50.019Z,17.48
2022-10-03T14:21:36.952Z,16.15
2022-10-03T14:24:58.057Z,16.73
2022-10-03T14:28:00.247Z,16.40
2022-10-03T14:31:06.038Z,17.45
2022-10-03T14:34:12.059Z,16.65
2022-10-03T14:37:15.879Z,18.15
2022-10-03T14:40:08.562Z,15.73
2022-10-03T14:42:48.255Z,16.95
2022-10-03T14:45:26.479Z,17.45
2022-10-03T14:47:59.566Z,16.45
2022-10-03T14:50:31.376Z,16.92
2022-10-03T14:53:29.857Z,17.98
2022-10-03T14:56:09.880Z,17.10
2022-10-03T14:58:52.456Z,17.73
2022-10-03T15:01:24.879Z,16.42
2022-10-03T15:04:10.150Z,20.27
2022-10-03T15:06:46.446Z,15.85
2022-10-03T15:09:21.369Z,17.17
2022-10-03T15:11:54.484Z,17.33
2022-10-03T15:14:24.359Z,16.65
2022-10-03T15:16:54.877Z,16.60
2022-10-03T15:19:32.871Z,18.35
2022-10-03T15:22:27.080Z,17.88
2022-10-03T15:24:59.048Z,16.85
2022-10-03T15:29:58.036Z,17.73
2022-10-03T15:32:42.230Z,16.08
2022-10-03T15:35:20.476Z,16.75
2022-10-03T15:37:48.832Z,18.55
2022-10-03T15:40:25.378Z,18.55
2022-10-03T15:43:22.834Z,18.30
2022-10-03T15:45:50.958Z,21.70
2022-10-03T15:48:21.839Z,19.98
2022-10-03T15:51:01.616Z,20.50
2022-10-03T15:53:37.186Z,18.90
2022-10-03T15:56:07.770Z,18.27
2022-10-03T15:58:39.129Z,19.30
2022-10-03T16:01:29.050Z,18.63
2022-10-03T16:04:01.681Z,17.65
2022-10-03T16:06:41.091Z,16.40
2022-10-03T16:09:25.619Z,14.93
2022-10-03T16:12:43.628Z,16.83
2022-10-03T16:15:20.857Z,15.38
2022-10-03T16:17:54.612Z,16.13
2022-10-03T16:20:41.714Z,21.02
2022-10-03T16:23:22.500Z,15.23
2022-10-03T16:25:57.432Z,15.48
2022-10-03T16:29:06.874Z,15.85
2022-10-03T16:31:43.591Z,16.90
2022-10-03T16:34:16.549Z,16.83
2022-10-03T16:36:49.313Z,15.98
2022-10-03T16:39:23.822Z,17.00
2022-10-03T16:41:55.753Z,17.48
2022-10-03T16:44:39.847Z,15.98
2022-10-03T16:47:09.313Z,15.48
2022-10-03T16:50:02.036Z,16.05
2022-10-03T16:52:36.242Z,17.92
2022-10-03T16:55:08.607Z,18.90
2022-10-03T16:57:46.218Z,20.13
2022-10-03T17:00:41.115Z,17.17
2022-10-03T17:03:22.674Z,18.15
2022-10-03T17:05:53.942Z,19.10
2022-10-03T17:08:41.359Z,17.77
2022-10-03T17:11:19.576Z,14.43
2022-10-03T17:13:52.447Z,20.10
2022-10-03T17:16:37.469Z,17.67
2022-10-03T17:19:20.524Z,17.25
2022-10-03T17:21:55.694Z,20.38
2022-10-03T17:24:42.398Z,18.98
2022-10-03T17:27:24.303Z,19.23
2022-10-03T17:30:01.960Z,21.90
2022-10-03T17:32:39.970Z,24.20
2022-10-03T17:35:11.807Z,21.20
2022-10-03T17:37:56.052Z,18.30
2022-10-03T17:40:35.663Z,20.25
2022-10-03T17:43:10.585Z,22.63
2022-10-03T17:46:05.531Z,17.80
2022-10-03T17:48:43.409Z,21.15
2022-10-03T17:51:16.429Z,18.88
2022-10-03T17:53:54.258Z,18.88
2022-10-03T17:56:27.456Z,19.15
2022-10-03T17:59:14.531Z,20.75
2022-10-03T18:01:45.391Z,22.60
2022-10-03T18:04:19.636Z,25.65
2022-10-03T18:06:50.404Z,22.60
2022-10-03T18:09:17.633Z,22.92
2022-10-03T18:11:49.775Z,26.63
2022-10-03T18:14:47.739Z,22.73
2022-10-03T18:17:52.525Z,23.08
2022-10-03T18:20:29.705Z,23.75
2022-10-03T18:23:01.176Z,23.25
2022-10-03T18:26:20.761Z,20.35
2022-10-03T18:29:23.585Z,21.52
2022-10-03T18:34:34.451Z,19.35
2022-10-03T18:37:28.106Z,21.50
2022-10-03T18:39:58.479Z,19.35
2022-10-03T18:42:28.332Z,21.40
2022-10-03T18:45:00.962Z,21.10
2022-10-03T18:47:37.561Z,20.08
2022-10-03T18:50:20.421Z,20.95
2022-10-03T18:52:55.579Z,20.13
2022-10-03T18:55:42.574Z,18.88
2022-10-03T18:58:25.335Z,27.48
2022-10-03T19:01:05.057Z,22.98
2022-10-03T19:03:39.742Z,22.98
2022-10-03T19:06:19.371Z,20.23
2022-10-03T19:09:26.641Z,19.95
2022-10-03T19:12:21.203Z,18.73
2022-10-03T19:15:11.176Z,21.52
2022-10-03T19:17:38.441Z,20.52
2022-10-03T19:20:12.117Z,20.90
2022-10-03T19:22:43.217Z,17.23
2022-10-03T19:25:21.352Z,21.83
2022-10-03T19:27:55.289Z,15.93
2022-10-03T19:30:25.849Z,18.92
2022-10-03T19:33:17.345Z,19.30
2022-10-03T19:35:52.705Z,25.03
2022-10-03T19:38:27.751Z,25.27
2022-10-03T19:41:04.779Z,23.85
2022-10-03T19:43:41.059Z,24.35
2022-10-03T19:46:29.912Z,22.08
2022-10-03T19:49:20.631Z,18.60
2022-10-03T19:51:49.268Z,17.85
2022-10-03T19:54:33.939Z,18.05
2022-10-03T19:57:05.493Z,19.33
2022-10-03T19:59:54.877Z,26.10
2022-10-03T20:02:24.812Z,19.63
2022-10-03T20:05:19.253Z,23.02
2022-10-03T20:08:00.778Z,21.20
2022-10-03T20:11:13.115Z,18.63
2022-10-03T20:13:47.936Z,21.95
2022-10-03T20:16:21.444Z,21.70
2022-10-03T20:18:52.645Z,24.88
2022-10-03T20:21:25.141Z,19.53
2022-10-03T20:23:56.875Z,20.73
2022-10-03T20:26:24.135Z,17.38
2022-10-03T20:29:22.985Z,22.13
2022-10-03T20:31:51.893Z,18.95
2022-10-03T20:34:24.405Z,19.27
2022-10-03T20:37:16.809Z,21.20
2022-10-03T20:42:25.204Z,18.58
2022-10-03T20:45:03.415Z,23.27
2022-10-03T20:48:02.378Z,20.17
2022-10-03T20:50:46.326Z,18.23
2022-10-03T20:53:23.781Z,18.48
2022-10-03T20:55:57.446Z,18.05
2022-10-03T20:58:43.031Z,20.17
2022-10-03T21:01:15.648Z,18.20
2022-10-03T21:04:10.639Z,18.10
2022-10-03T21:07:00.483Z,19.13
2022-10-03T21:09:50.557Z,21.05
2022-10-03T21:12:25.210Z,19.85
2022-10-03T21:15:00.563Z,16.67
2022-10-03T21:17:29.130Z,17.25
2022-10-03T21:20:10.316Z,17.25
2022-10-03T21:22:38.510Z,16.90
2022-10-03T21:25:19.487Z,20.95
2022-10-03T21:27:54.541Z,18.73
2022-10-03T21:30:45.360Z,16.08
2022-10-03T21:33:22.363Z,16.88
2022-10-03T21:35:51.290Z,20.42
2022-10-03T21:38:31.793Z,17.15
2022-10-03T21:41:20.619Z,17.80
2022-10-03T21:44:16.815Z,19.15
2022-10-03T21:47:13.442Z,15.43
2022-10-03T21:49:49.806Z,13.45
2022-10-03T21:52:40.866Z,15.90
2022-10-03T21:55:39.221Z,16.75
2022-10-03T21:58:57.491Z,15.02
2022-10-03T22:01:46.323Z,16.33
2022-10-03T22:04:36.077Z,14.35
2022-10-03T22:07:25.875Z,19.05
2022-10-03T22:09:56.298Z,15.60
2022-10-03T22:12:28.449Z,15.75
2022-10-03T22:15:05.287Z,15.15
2022-10-03T22:17:44.984Z,14.30
2022-10-03T22:20:21.747Z,14.48
2022-10-03T22:23:06.979Z,14.15
2022-10-03T22:25:46.057Z,12.82
2022-10-03T22:28:41.971Z,12.98
2022-10-03T22:31:38.208Z,12.98
2022-10-03T22:34:40.375Z,12.07
2022-10-03T22:37:07.925Z,12.82
2022-10-03T22:39:37.044Z,11.23
2022-10-03T22:42:05.083Z,11.82
2022-10-03T22:44:38.252Z,12.00
2022-10-03T22:47:19.491Z,13.45
2022-10-03T22:49:49.569Z,14.03
2022-10-03T22:52:24.218Z,14.88
2022-10-03T22:54:52.543Z,10.57
2022-10-03T22:57:23.088Z,9.35
2022-10-03T22:59:55.589Z,11.05
2022-10-03T23:02:31.810Z,12.43
2022-10-03T23:05:48.391Z,11.77
2022-10-03T23:08:18.544Z,8.50
2022-10-03T23:10:55.228Z,12.95
2022-10-03T23:13:39.299Z,12.80
2022-10-03T23:16:36.582Z,9.82
2022-10-03T23:19:26.750Z,11.07
2022-10-03T23:21:56.899Z,13.30
2022-10-03T23:24:29.961Z,10.48
2022-10-03T23:27:29.368Z,10.82
2022-10-03T23:30:17.823Z,8.43
2022-10-03T23:32:47.922Z,11.13
2022-10-03T23:35:30.483Z,10.05
2022-10-03T23:37:59.480Z,9.93
2022-10-03T23:40:39.932Z,10.57
2022-10-03T23:43:35.499Z,10.57
2022-10-03T23:46:08.857Z,10.77
2022-10-03T23:48:49.532Z,13.85
2022-10-03T23:51:22.179Z,13.50
2022-10-03T23:53:53.088Z,10.30
2022-10-03T23:56:23.460Z,10.80
2022-10-03T23:59:03.751Z,10.75
